createdAt,value
2018-08-23T00:01:30.061Z,99771.84
2018-08-23T00:04:04.485Z,99765.13
2018-08-23T00:06:32.184Z,99763.19
2018-08-23T00:08:59.876Z,99757.42
2018-08-23T00:11:29.096Z,99751.94
2018-08-23T00:13:56.918Z,99753.92
2018-08-23T00:16:31.680Z,99755.25
2018-08-23T00:18:59.763Z,99753.27
2018-08-23T00:21:27.987Z,99758.27
2018-08-23T00:24:09.553Z,99753.16
2018-08-23T00:26:38.418Z,99760.36
2018-08-23T00:29:38.846Z,99761.09
2018-08-23T00:32:07.462Z,99765.70
2018-08-23T00:34:36.346Z,99763.39
2018-08-23T00:37:04.743Z,99768.30
2018-08-23T00:39:32.418Z,99762.93
2018-08-23T00:42:05.153Z,99755.45
2018-08-23T00:44:53.394Z,99753.66
2018-08-23T00:47:24.848Z,99756.06
2018-08-23T00:49:52.455Z,99756.28
2018-08-23T00:52:46.321Z,99749.67
2018-08-23T00:55:23.664Z,99750.06
2018-08-23T00:57:51.354Z,99745.74
2018-08-23T01:00:22.184Z,99747.45
2018-08-23T01:02:51.119Z,99758.26
2018-08-23T01:05:24.657Z,99746.24
2018-08-23T01:07:52.637Z,99742.52
2018-08-23T01:10:20.630Z,99743.23
2018-08-23T01:12:59.394Z,99742.52
2018-08-23T01:15:27.604Z,99737.24
2018-08-23T01:18:10.997Z,99736.88
2018-08-23T01:20:39.536Z,99733.26
2018-08-23T01:23:07.217Z,99734.89
2018-08-23T01:25:36.312Z,99728.62
2018-08-23T01:28:04.492Z,99719.02
2018-08-23T01:30:32.237Z,99724.72
2018-08-23T01:32:59.971Z,99717.41
2018-08-23T01:35:27.910Z,99719.28
2018-08-23T01:37:55.636Z,99714.00
2018-08-23T01:40:23.333Z,99718.00
2018-08-23T01:42:51.029Z,99714.55
2018-08-23T01:45:18.759Z,99711.22
2018-08-23T01:47:51.988Z,99708.27
2018-08-23T01:50:19.656Z,99707.64
2018-08-23T01:52:48.366Z,99705.62
2018-08-23T01:55:16.898Z,99705.48
2018-08-23T01:57:44.856Z,99705.66
2018-08-23T02:00:13.674Z,99700.66
2018-08-23T02:02:41.402Z,99707.31
2018-08-23T02:05:09.154Z,99707.31
2018-08-23T02:07:43.594Z,99705.36
2018-08-23T02:10:11.299Z,99708.84
2018-08-23T02:12:38.923Z,99707.48
2018-08-23T02:15:09.904Z,99703.66
2018-08-23T02:17:44.116Z,99701.17
2018-08-23T02:20:11.846Z,99698.02
2018-08-23T02:22:39.538Z,99697.19
2018-08-23T02:25:07.516Z,99697.84
2018-08-23T02:27:51.147Z,99696.52
2018-08-23T02:30:38.640Z,99691.23
2018-08-23T02:33:06.376Z,99690.78
2018-08-23T02:35:34.483Z,99697.59
2018-08-23T02:38:02.152Z,99698.09
2018-08-23T02:40:30.861Z,99689.08
2018-08-23T02:42:58.549Z,99687.30
2018-08-23T02:45:30.902Z,99691.94
2018-08-23T02:47:59.955Z,99689.62
2018-08-23T02:50:27.616Z,99690.48
2018-08-23T02:52:59.963Z,99688.66
2018-08-23T02:55:27.679Z,99679.92
2018-08-23T02:57:59.012Z,99679.63
2018-08-23T03:00:31.410Z,99677.47
2018-08-23T03:03:00.966Z,99680.78
2018-08-23T03:05:28.630Z,99681.13
2018-08-23T03:07:56.310Z,99682.75
2018-08-23T03:10:24.060Z,99678.80
2018-08-23T03:12:51.797Z,99689.25
2018-08-23T03:15:24.361Z,99686.92
2018-08-23T03:17:52.891Z,99679.13
2018-08-23T03:20:20.696Z,99686.43
2018-08-23T03:22:53.329Z,99680.28
2018-08-23T03:25:22.097Z,99677.50
2018-08-23T03:27:51.030Z,99675.17
2018-08-23T03:30:19.355Z,99680.98
2018-08-23T03:32:47.040Z,99674.34
2018-08-23T03:35:14.799Z,99670.05
2018-08-23T03:37:42.595Z,99673.57
2018-08-23T03:40:12.148Z,99668.75
2018-08-23T03:42:40.050Z,99669.26
2018-08-23T03:45:14.761Z,99670.08
2018-08-23T03:47:48.353Z,99668.59
2018-08-23T03:50:16.117Z,99671.73
2018-08-23T03:52:46.554Z,99674.26
2018-08-23T03:55:18.046Z,99676.09
2018-08-23T03:57:50.959Z,99670.58
2018-08-23T04:00:25.757Z,99676.06
2018-08-23T04:02:54.908Z,99669.25
2018-08-23T04:05:22.625Z,99668.13
2018-08-23T04:07:50.299Z,99675.59
2018-08-23T04:10:18.024Z,99672.10
2018-08-23T04:12:45.708Z,99676.58
2018-08-23T04:15:31.312Z,99683.72
2018-08-23T04:18:06.123Z,99675.94
2018-08-23T04:20:33.835Z,99668.14
2018-08-23T04:23:01.615Z,99665.96
2018-08-23T04:25:29.243Z,99662.61
2018-08-23T04:27:56.893Z,99669.09
2018-08-23T04:30:24.521Z,99668.56
2018-08-23T04:32:52.234Z,99663.72
2018-08-23T04:35:24.690Z,99669.17
2018-08-23T04:37:52.370Z,99657.37
2018-08-23T04:40:20.009Z,99657.37
2018-08-23T04:42:47.729Z,99657.72
2018-08-23T04:45:18.311Z,99667.17
2018-08-23T04:48:08.390Z,99661.03
2018-08-23T04:50:37.321Z,99665.15
2018-08-23T04:53:05.137Z,99668.09
2018-08-23T04:55:32.848Z,99668.36
2018-08-23T04:58:01.336Z,99662.97
2018-08-23T05:00:29.787Z,99666.91
2018-08-23T05:02:57.884Z,99667.69
2018-08-23T05:05:25.887Z,99661.95
2018-08-23T05:07:53.615Z,99666.37
2018-08-23T05:10:21.695Z,99665.28
2018-08-23T05:12:49.381Z,99666.69
2018-08-23T05:15:17.081Z,99673.23
2018-08-23T05:17:44.929Z,99661.91
2018-08-23T05:20:12.711Z,99661.00
2018-08-23T05:22:48.701Z,99662.02
2018-08-23T05:25:16.518Z,99658.16
2018-08-23T05:28:19.930Z,99661.55
2018-08-23T05:30:48.431Z,99655.88
2018-08-23T05:33:17.940Z,99658.45
2018-08-23T05:35:46.009Z,99655.47
2018-08-23T05:38:14.368Z,99648.72
2018-08-23T05:40:44.840Z,99649.87
2018-08-23T05:43:13.243Z,99647.16
2018-08-23T05:45:47.784Z,99650.28
2018-08-23T05:48:21.811Z,99648.81
2018-08-23T05:50:49.788Z,99650.66
2018-08-23T05:53:18.221Z,99649.06
2018-08-23T05:55:50.570Z,99650.33
2018-08-23T05:58:35.153Z,99646.81
2018-08-23T06:01:03.170Z,99644.04
2018-08-23T06:03:30.882Z,99645.52
2018-08-23T06:05:58.745Z,99643.03
2018-08-23T06:08:26.517Z,99644.72
2018-08-23T06:10:57.687Z,99647.55
2018-08-23T06:13:25.557Z,99646.57
2018-08-23T06:15:54.216Z,99648.69
2018-08-23T06:18:22.590Z,99646.33
2018-08-23T06:20:50.335Z,99645.66
2018-08-23T06:23:18.664Z,99647.88
2018-08-23T06:25:47.022Z,99645.91
2018-08-23T06:28:20.737Z,99636.80
2018-08-23T06:30:48.444Z,99640.34
2018-08-23T06:33:36.991Z,99639.77
2018-08-23T06:36:05.507Z,99637.55
2018-08-23T06:38:34.163Z,99637.05
2018-08-23T06:41:03.109Z,99635.27
2018-08-23T06:43:31.249Z,99631.10
2018-08-23T06:45:59.642Z,99636.48
2018-08-23T06:48:27.381Z,99640.23
2018-08-23T06:50:57.312Z,99638.26
2018-08-23T06:53:31.902Z,99631.91
2018-08-23T06:55:59.650Z,99631.86
2018-08-23T06:58:27.369Z,99629.33
2018-08-23T07:00:54.999Z,99626.39
2018-08-23T07:03:22.670Z,99627.07
2018-08-23T07:05:50.562Z,99625.16
2018-08-23T07:08:18.422Z,99627.59
2018-08-23T07:10:46.122Z,99625.11
2018-08-23T07:13:13.816Z,99623.81
2018-08-23T07:15:46.113Z,99620.69
2018-08-23T07:18:19.721Z,99625.29
2018-08-23T07:20:47.427Z,99616.78
2018-08-23T07:23:28.940Z,99619.84
2018-08-23T07:25:56.635Z,99616.77
2018-08-23T07:28:24.383Z,99622.85
2018-08-23T07:30:53.616Z,99621.56
2018-08-23T07:33:21.447Z,99623.33
2018-08-23T07:36:05.517Z,99623.58
2018-08-23T07:38:33.136Z,99625.69
2018-08-23T07:41:00.840Z,99625.04
2018-08-23T07:43:28.568Z,99617.25
2018-08-23T07:45:56.258Z,99617.08
2018-08-23T07:48:24.027Z,99621.17
2018-08-23T07:50:51.763Z,99622.94
2018-08-23T07:53:19.609Z,99624.28
2018-08-23T07:55:47.175Z,99620.59
2018-08-23T07:58:14.957Z,99616.98
2018-08-23T08:00:43.278Z,99618.88
2018-08-23T08:03:12.071Z,99620.23
2018-08-23T08:05:41.117Z,99618.41
2018-08-23T08:08:09.825Z,99614.38
2018-08-23T08:10:38.882Z,99614.69
2018-08-23T08:13:06.580Z,99619.20
2018-08-23T08:15:34.205Z,99616.50
2018-08-23T08:18:08.919Z,99610.94
2018-08-23T08:20:36.618Z,99617.64
2018-08-23T08:23:04.279Z,99615.30
2018-08-23T08:25:32.300Z,99609.17
2018-08-23T08:28:00.236Z,99610.13
2018-08-23T08:30:39.721Z,99608.19
2018-08-23T08:33:08.706Z,99604.06
2018-08-23T08:35:37.778Z,99610.02
2018-08-23T08:38:05.627Z,99608.48
2018-08-23T08:40:33.458Z,99609.55
2018-08-23T08:43:02.043Z,99602.48
2018-08-23T08:45:30.116Z,99610.20
2018-08-23T08:48:44.207Z,99596.39
2018-08-23T08:51:23.724Z,99593.23
2018-08-23T08:53:52.380Z,99595.95
2018-08-23T08:56:27.053Z,99587.63
2018-08-23T08:58:54.718Z,99586.12
2018-08-23T09:01:22.512Z,99587.52
2018-08-23T09:03:50.248Z,99588.25
2018-08-23T09:06:22.996Z,99584.62
2018-08-23T09:08:50.806Z,99577.73
2018-08-23T09:11:21.677Z,99578.36
2018-08-23T09:13:49.771Z,99568.53
2018-08-23T09:16:21.395Z,99566.94
2018-08-23T09:18:58.497Z,99563.80
2018-08-23T09:21:26.498Z,99561.84
2018-08-23T09:23:54.204Z,99564.71
2018-08-23T09:26:26.800Z,99553.13
2018-08-23T09:28:54.468Z,99551.95
2018-08-23T09:31:22.275Z,99546.85
2018-08-23T09:33:49.906Z,99535.78
2018-08-23T09:36:17.538Z,99537.98
2018-08-23T09:38:45.532Z,99532.00
2018-08-23T09:41:13.249Z,99531.95
2018-08-23T09:43:40.873Z,99529.89
2018-08-23T09:46:08.633Z,99525.30
2018-08-23T09:48:36.389Z,99525.56
2018-08-23T09:51:16.280Z,99523.19
2018-08-23T09:53:44.244Z,99523.19
2018-08-23T09:56:17.405Z,99516.94
2018-08-23T09:58:45.157Z,99517.50
2018-08-23T10:01:18.406Z,99504.55
2018-08-23T10:03:51.772Z,99499.67
2018-08-23T10:06:21.967Z,99501.05
2018-08-23T10:09:02.390Z,99498.04
2018-08-23T10:11:35.974Z,99490.72
2018-08-23T10:14:09.429Z,99492.13
2018-08-23T10:16:43.069Z,99486.14
2018-08-23T10:19:16.376Z,99479.88
2018-08-23T10:21:49.678Z,99478.75
2018-08-23T10:24:23.294Z,99470.30
2018-08-23T10:26:52.108Z,99469.16
2018-08-23T10:29:19.889Z,99470.25
2018-08-23T10:31:47.780Z,99465.92
2018-08-23T10:34:15.433Z,99465.44
2018-08-23T10:36:43.404Z,99465.97
2018-08-23T10:39:12.378Z,99464.62
2018-08-23T10:41:40.288Z,99453.67
2018-08-23T10:44:08.003Z,99448.41
2018-08-23T10:46:41.566Z,99447.48
2018-08-23T10:49:09.378Z,99446.09
2018-08-23T10:51:37.040Z,99441.47
2018-08-23T10:54:04.755Z,99442.28
2018-08-23T10:56:32.426Z,99438.58
2018-08-23T10:59:00.135Z,99432.82
2018-08-23T11:01:27.792Z,99436.87
2018-08-23T11:03:59.162Z,99433.41
2018-08-23T11:06:26.940Z,99435.58
2018-08-23T11:09:01.429Z,99431.50
2018-08-23T11:11:32.723Z,99423.27
2018-08-23T11:14:06.568Z,99432.69
2018-08-23T11:16:40.168Z,99428.02
2018-08-23T11:19:13.578Z,99423.59
2018-08-23T11:21:41.296Z,99421.08
2018-08-23T11:24:08.998Z,99420.20
2018-08-23T11:26:36.666Z,99410.73
2018-08-23T11:29:04.435Z,99407.96
2018-08-23T11:31:32.185Z,99408.65
2018-08-23T11:33:59.776Z,99407.09
2018-08-23T11:36:27.458Z,99399.39
2018-08-23T11:38:55.135Z,99398.17
2018-08-23T11:41:22.938Z,99402.41
2018-08-23T11:43:50.609Z,99393.50
2018-08-23T11:46:19.610Z,99394.77
2018-08-23T11:48:48.247Z,99393.97
2018-08-23T11:51:16.722Z,99392.45
2018-08-23T11:53:44.981Z,99391.29
2018-08-23T11:56:12.390Z,99387.77
2018-08-23T11:58:41.119Z,99400.06
2018-08-23T12:01:10.005Z,99397.04
2018-08-23T12:03:38.252Z,99399.47
2018-08-23T12:06:06.746Z,99401.03
2018-08-23T12:08:34.388Z,99397.89
2018-08-23T12:11:02.048Z,99393.72
2018-08-23T12:13:29.703Z,99387.78
2018-08-23T12:15:57.356Z,99377.92
2018-08-23T12:18:31.020Z,99377.69
2018-08-23T12:20:58.663Z,99383.64
2018-08-23T12:23:26.355Z,99383.78
2018-08-23T12:25:54.187Z,99373.50
2018-08-23T12:28:27.607Z,99368.58
2018-08-23T12:30:55.371Z,99357.23
2018-08-23T12:33:23.135Z,99360.45
2018-08-23T12:35:50.937Z,99355.98
2018-08-23T12:38:24.500Z,99369.16
2018-08-23T12:40:57.867Z,99361.27
2018-08-23T12:43:30.198Z,99358.41
2018-08-23T12:46:02.016Z,99342.20
2018-08-23T12:48:29.794Z,99348.51
2018-08-23T12:50:57.836Z,99341.30
2018-08-23T12:53:27.743Z,99350.77
2018-08-23T12:55:55.496Z,99349.17
2018-08-23T12:58:23.220Z,99343.30
2018-08-23T13:00:50.846Z,99344.22
2018-08-23T13:03:18.602Z,99331.25
2018-08-23T13:05:47.843Z,99320.55
2018-08-23T13:08:15.586Z,99324.29
2018-08-23T13:10:43.232Z,99306.12
2018-08-23T13:13:10.894Z,99295.04
2018-08-23T13:15:38.595Z,99293.48
2018-08-23T13:18:06.332Z,99276.82
2018-08-23T13:20:34.088Z,99275.37
2018-08-23T13:23:01.726Z,99286.15
2018-08-23T13:25:29.434Z,99290.34
2018-08-23T13:27:57.121Z,99287.94
2018-08-23T13:30:24.927Z,99286.34
2018-08-23T13:32:52.584Z,99279.24
2018-08-23T13:37:59.982Z,99256.73
2018-08-23T13:40:27.569Z,99263.09
2018-08-23T13:42:55.173Z,99265.72
2018-08-23T13:45:23.021Z,99266.64
2018-08-23T13:47:50.751Z,99265.13
2018-08-23T13:50:18.513Z,99265.39
2018-08-23T13:52:46.463Z,99262.50
2018-08-23T13:55:14.124Z,99256.58
2018-08-23T13:57:41.897Z,99246.70
2018-08-23T14:00:14.294Z,99250.81
2018-08-23T14:02:42.041Z,99255.42
2018-08-23T14:05:09.787Z,99250.07
2018-08-23T14:07:37.643Z,99246.73
2018-08-23T14:10:05.375Z,99240.66
2018-08-23T14:12:33.188Z,99237.16
2018-08-23T14:15:00.967Z,99221.02
2018-08-23T14:17:28.735Z,99211.20
2018-08-23T14:19:56.458Z,99213.27
2018-08-23T14:22:24.187Z,99201.67
2018-08-23T14:24:52.035Z,99197.58
2018-08-23T14:27:19.937Z,99190.84
2018-08-23T14:29:48.731Z,99187.94
2018-08-23T14:32:16.512Z,99177.58
2018-08-23T14:34:44.306Z,99176.84
2018-08-23T14:37:12.201Z,99171.85
2018-08-23T14:39:40.040Z,99166.34
2018-08-23T14:42:07.792Z,99172.80
2018-08-23T14:44:35.517Z,99166.72
2018-08-23T14:47:09.021Z,99159.50
2018-08-23T14:49:36.805Z,99149.56
2018-08-23T14:52:05.363Z,99167.41
2018-08-23T14:54:38.823Z,99158.77
2018-08-23T14:57:12.371Z,99155.75
2018-08-23T14:59:40.441Z,99153.92
2018-08-23T15:02:08.560Z,99153.03
2018-08-23T15:04:36.675Z,99152.94
2018-08-23T15:07:04.845Z,99153.99
2018-08-23T15:09:32.582Z,99156.44
2018-08-23T15:12:00.987Z,99152.64
2018-08-23T15:14:28.877Z,99147.22
2018-08-23T15:16:56.700Z,99149.73
2018-08-23T15:19:24.557Z,99152.20
2018-08-23T15:21:52.808Z,99152.34
2018-08-23T15:24:20.541Z,99147.08
2018-08-23T15:26:48.426Z,99147.66
2018-08-23T15:29:16.129Z,99146.01
2018-08-23T15:31:44.703Z,99155.32
2018-08-23T15:34:12.844Z,99162.66
2018-08-23T15:36:40.917Z,99176.95
2018-08-23T15:39:11.604Z,99171.81
2018-08-23T15:41:40.036Z,99197.88
2018-08-23T15:44:08.197Z,99208.19
2018-08-23T15:46:41.984Z,99255.23
2018-08-23T15:49:09.902Z,99257.30
2018-08-23T15:51:38.639Z,99250.22
2018-08-23T15:54:07.238Z,99292.59
2018-08-23T15:56:35.318Z,99297.16
2018-08-23T15:59:03.138Z,99290.78
2018-08-23T16:01:31.298Z,99299.32
2018-08-23T16:03:59.049Z,99315.59
2018-08-23T16:06:27.270Z,99336.47
2018-08-23T16:08:55.201Z,99341.71
2018-08-23T16:11:24.178Z,99343.90
2018-08-23T16:13:52.276Z,99345.33
2018-08-23T16:16:25.750Z,99339.91
2018-08-23T16:18:59.394Z,99346.41
2018-08-23T16:21:32.859Z,99353.91
2018-08-23T16:24:00.815Z,99358.31
2018-08-23T16:26:34.338Z,99347.61
2018-08-23T16:29:02.179Z,99352.47
2018-08-23T16:31:30.214Z,99354.39
2018-08-23T16:33:58.264Z,99358.11
2018-08-23T16:36:27.428Z,99363.66
2018-08-23T16:38:55.328Z,99370.27
2018-08-23T16:41:23.195Z,99387.22
2018-08-23T16:43:50.923Z,99383.42
2018-08-23T16:46:18.704Z,99381.55
2018-08-23T16:48:46.417Z,99388.06
2018-08-23T16:51:14.150Z,99389.72
2018-08-23T16:53:42.413Z,99393.33
2018-08-23T16:56:10.112Z,99386.28
2018-08-23T16:58:38.013Z,99384.94
2018-08-23T17:01:05.699Z,99377.55
2018-08-23T17:03:33.494Z,99377.51
2018-08-23T17:06:01.313Z,99373.70
2018-08-23T17:08:29.110Z,99369.05
2018-08-23T17:10:56.951Z,99363.19
2018-08-23T17:13:30.472Z,99364.59
2018-08-23T17:16:03.990Z,99361.38
2018-08-23T17:18:31.666Z,99361.94
2018-08-23T17:20:59.353Z,99343.42
2018-08-23T17:23:27.116Z,99337.06
2018-08-23T17:25:55.004Z,99331.73
2018-08-23T17:28:22.782Z,99334.27
2018-08-23T17:30:50.530Z,99334.07
2018-08-23T17:33:18.142Z,99330.16
2018-08-23T17:35:45.987Z,99328.76
2018-08-23T17:38:13.734Z,99327.73
2018-08-23T17:40:41.402Z,99332.83
2018-08-23T17:43:09.098Z,99336.36
2018-08-23T17:45:36.822Z,99329.98
2018-08-23T17:48:04.866Z,99320.04
2018-08-23T17:50:32.558Z,99312.27
2018-08-23T17:53:01.184Z,99321.72
2018-08-23T17:55:29.054Z,99325.34
2018-08-23T17:57:56.771Z,99327.86
2018-08-23T18:00:24.576Z,99322.45
2018-08-23T18:02:52.690Z,99321.53
2018-08-23T18:05:20.542Z,99312.16
2018-08-23T18:07:48.265Z,99321.95
2018-08-23T18:10:15.905Z,99331.33
2018-08-23T18:12:43.563Z,99326.77
2018-08-23T18:15:11.237Z,99329.42
2018-08-23T18:17:39.671Z,99323.63
2018-08-23T18:20:07.758Z,99328.17
2018-08-23T18:22:35.791Z,99321.07
2018-08-23T18:25:03.539Z,99320.50
2018-08-23T18:27:31.349Z,99317.27
2018-08-23T18:29:59.039Z,99320.64
2018-08-23T18:32:26.888Z,99316.17
2018-08-23T18:34:54.666Z,99313.63
2018-08-23T18:37:22.541Z,99315.13
2018-08-23T18:39:50.665Z,99318.84
2018-08-23T18:42:18.401Z,99315.86
2018-08-23T18:44:46.223Z,99318.16
2018-08-23T18:47:14.611Z,99314.22
2018-08-23T18:49:42.644Z,99312.44
2018-08-23T18:52:10.412Z,99304.51
2018-08-23T18:54:38.189Z,99302.68
2018-08-23T18:57:06.107Z,99302.16
2018-08-23T18:59:33.870Z,99303.08
2018-08-23T19:02:01.753Z,99299.56
2018-08-23T19:04:29.581Z,99297.50
2018-08-23T19:06:57.612Z,99291.61
2018-08-23T19:09:25.461Z,99298.41
2018-08-23T19:11:53.365Z,99294.20
2018-08-23T19:14:22.293Z,99291.83
2018-08-23T19:16:55.845Z,99293.09
2018-08-23T19:19:23.762Z,99297.84
2018-08-23T19:21:51.695Z,99297.33
2018-08-23T19:24:19.695Z,99293.81
2018-08-23T19:26:47.471Z,99297.37
2018-08-23T19:29:15.199Z,99301.31
2018-08-23T19:31:42.928Z,99300.49
2018-08-23T19:34:10.664Z,99300.58
2018-08-23T19:36:38.473Z,99294.98
2018-08-23T19:39:09.433Z,99299.23
2018-08-23T19:41:37.273Z,99287.89
2018-08-23T19:44:05.236Z,99286.34
2018-08-23T19:46:38.828Z,99285.00
2018-08-23T19:49:12.466Z,99281.83
2018-08-23T19:51:40.267Z,99283.26
2018-08-23T19:54:08.018Z,99282.66
2018-08-23T19:56:36.199Z,99285.86
2018-08-23T19:59:03.940Z,99276.91
2018-08-23T20:01:31.733Z,99280.19
2018-08-23T20:03:59.470Z,99277.89
2018-08-23T20:06:27.420Z,99273.83
2018-08-23T20:08:55.180Z,99277.81
2018-08-23T20:11:23.476Z,99274.69
2018-08-23T20:13:51.268Z,99279.97
2018-08-23T20:16:18.962Z,99274.22
2018-08-23T20:18:46.956Z,99277.72
2018-08-23T20:21:14.847Z,99279.28
2018-08-23T20:23:42.602Z,99273.34
2018-08-23T20:26:10.487Z,99274.74
2018-08-23T20:28:38.134Z,99283.63
2018-08-23T20:31:05.948Z,99274.27
2018-08-23T20:33:33.675Z,99268.52
2018-08-23T20:36:01.358Z,99255.84
2018-08-23T20:38:29.096Z,99259.56
2018-08-23T20:40:56.762Z,99261.87
2018-08-23T20:43:24.468Z,99271.18
2018-08-23T20:45:52.120Z,99272.22
2018-08-23T20:48:19.824Z,99270.28
2018-08-23T20:50:47.495Z,99263.53
2018-08-23T20:53:15.311Z,99259.94
2018-08-23T20:55:43.045Z,99268.08
2018-08-23T20:58:10.752Z,99272.70
2018-08-23T21:00:38.448Z,99263.14
2018-08-23T21:03:06.130Z,99266.95
2018-08-23T21:05:33.897Z,99260.03
2018-08-23T21:08:01.675Z,99264.22
2018-08-23T21:10:29.324Z,99266.73
2018-08-23T21:12:57.075Z,99264.00
2018-08-23T21:15:24.747Z,99258.67
2018-08-23T21:17:52.595Z,99259.93
2018-08-23T21:20:20.202Z,99255.98
2018-08-23T21:22:47.877Z,99253.66
2018-08-23T21:25:15.565Z,99256.91
2018-08-23T21:27:43.199Z,99254.27
2018-08-23T21:30:10.903Z,99251.28
2018-08-23T21:32:38.609Z,99245.73
2018-08-23T21:35:06.356Z,99249.38
2018-08-23T21:37:34.043Z,99247.30
2018-08-23T21:40:01.777Z,99255.52
2018-08-23T21:42:29.524Z,99250.20
2018-08-23T21:44:57.204Z,99245.73
2018-08-23T21:47:24.883Z,99238.73
2018-08-23T21:49:52.634Z,99235.39
2018-08-23T21:52:20.342Z,99240.23
2018-08-23T21:54:48.008Z,99236.73
2018-08-23T21:57:15.700Z,99236.27
2018-08-23T21:59:43.360Z,99240.16
2018-08-23T22:02:17.621Z,99243.01
2018-08-23T22:04:52.918Z,99250.76
2018-08-23T22:07:20.868Z,99247.88
2018-08-23T22:09:50.487Z,99257.02
2018-08-23T22:12:20.450Z,99264.03
2018-08-23T22:14:49.102Z,99263.45
2018-08-23T22:17:17.168Z,99258.17
2018-08-23T22:19:44.820Z,99263.07
2018-08-23T22:22:12.538Z,99254.42
2018-08-23T22:24:40.172Z,99251.36
2018-08-23T22:27:08.322Z,99257.81
2018-08-23T22:29:36.525Z,99263.44
2018-08-23T22:32:04.602Z,99264.58
2018-08-23T22:34:32.261Z,99261.99
2018-08-23T22:36:59.984Z,99266.92
2018-08-23T22:39:28.290Z,99268.63
2018-08-23T22:41:56.006Z,99258.36
2018-08-23T22:44:23.874Z,99252.98
2018-08-23T22:46:51.358Z,99250.98
2018-08-23T22:49:19.072Z,99246.13
2018-08-23T22:51:46.760Z,99237.05
2018-08-23T22:54:14.610Z,99230.50
2018-08-23T22:56:42.659Z,99220.69
2018-08-23T22:59:10.562Z,99218.95
2018-08-23T23:01:38.650Z,99217.84
2018-08-23T23:04:12.146Z,99218.34
2018-08-23T23:06:39.838Z,99220.81
2018-08-23T23:09:10.723Z,99216.49
2018-08-23T23:11:38.376Z,99214.70
2018-08-23T23:14:06.240Z,99210.98
2018-08-23T23:16:34.200Z,99205.47
2018-08-23T23:19:01.986Z,99208.45
2018-08-23T23:21:29.788Z,99214.24
2018-08-23T23:23:57.372Z,99209.20
2018-08-23T23:26:25.010Z,99207.63
2018-08-23T23:28:52.721Z,99204.42
2018-08-23T23:31:20.366Z,99209.88
2018-08-23T23:33:48.020Z,99214.41
2018-08-23T23:36:15.809Z,99220.30
2018-08-23T23:38:43.542Z,99217.09
2018-08-23T23:41:11.197Z,99210.86
2018-08-23T23:43:38.882Z,99213.08
2018-08-23T23:46:06.536Z,99199.38
2018-08-23T23:48:34.541Z,99202.62
2018-08-23T23:51:02.277Z,99198.59
2018-08-23T23:53:30.015Z,99202.47
2018-08-23T23:55:57.757Z,99194.30
2018-08-23T23:58:25.443Z,99198.84
